Time;durP1;ratioP1;P1;durP2;ratioP2;P2;SDS_P1;SDS_P2;PMS_P1;PMS_P2;Temp;Humidity;BMP_temperature;BMP_pressure;BME280_temperature;BME280_humidity;BME280_pressure;Samples;Min_cycle;Max_cycle;Signal;HPM_P1;HPM_P2
2021/04/05 00:00:42;;;;;;;33.77;20.07;;;5.10;1.00;;;;;;5005975;28;21515;-81
2021/04/05 00:03:08;;;;;;;34.70;19.70;;;5.00;1.00;;;;;;5006236;28;20183;-81
2021/04/05 00:05:37;;;;;;;35.67;18.33;;;5.10;1.00;;;;;;5000463;28;20206;-83
2021/04/05 00:08:05;;;;;;;33.23;18.50;;;5.00;1.00;;;;;;5008719;28;20519;-81
2021/04/05 00:10:44;;;;;;;39.13;17.83;;;5.00;1.00;;;;;;5008261;28;20447;-82
2021/04/05 00:13:16;;;;;;;29.43;18.63;;;5.10;1.00;;;;;;5015274;28;20479;-80
2021/04/05 00:15:42;;;;;;;30.60;19.70;;;5.10;1.00;;;;;;5010835;28;20464;-80
2021/04/05 00:18:08;;;;;;;37.13;18.77;;;5.10;1.00;;;;;;5006273;28;20440;-81
2021/04/05 00:20:37;;;;;;;30.77;17.33;;;5.10;1.00;;;;;;5010592;28;21040;-81
2021/04/05 00:23:04;;;;;;;28.23;17.73;;;5.00;1.00;;;;;;5009315;28;20444;-80
2021/04/05 00:25:30;;;;;;;36.70;18.20;;;5.10;1.00;;;;;;5010132;28;20464;-80
2021/04/05 00:27:56;;;;;;;32.60;19.33;;;5.00;1.00;;;;;;5012806;28;20465;-80
2021/04/05 00:30:33;;;;;;;39.43;18.07;;;5.00;1.00;;;;;;5010506;28;21077;-80
2021/04/05 00:32:59;;;;;;;30.60;18.77;;;5.00;1.00;;;;;;5013540;28;20190;-81
2021/04/05 00:35:27;;;;;;;32.70;20.43;;;5.00;1.00;;;;;;5013168;28;20466;-82
2021/04/05 00:37:54;;;;;;;30.03;17.93;;;5.00;1.00;;;;;;5014106;28;21306;-80
2021/04/05 00:40:27;;;;;;;34.13;17.97;;;5.10;1.00;;;;;;5006776;28;20484;-83
2021/04/05 00:42:53;;;;;;;32.47;18.90;;;5.00;1.00;;;;;;5011590;28;21279;-82
2021/04/05 00:45:19;;;;;;;39.13;18.73;;;5.10;1.00;;;;;;5010951;28;20479;-80
2021/04/05 00:47:49;;;;;;;45.10;21.67;;;5.10;1.00;;;;;;5011713;28;20468;-80
2021/04/05 00:50:34;;;;;;;41.10;20.47;;;5.00;1.00;;;;;;5011700;28;20195;-81
2021/04/05 00:53:11;;;;;;;45.33;21.20;;;5.00;1.00;;;;;;5011256;28;20698;-81
2021/04/05 00:55:39;;;;;;;37.33;20.40;;;5.00;1.00;;;;;;5014302;28;20496;-80
2021/04/05 00:58:05;;;;;;;34.63;18.67;;;5.00;1.00;;;;;;5014272;28;20936;-81
2021/04/05 01:00:39;;;;;;;39.07;20.50;;;5.00;1.00;;;;;;5009781;28;21054;-83
2021/04/05 01:03:06;;;;;;;33.13;19.70;;;5.00;1.00;;;;;;5011092;28;20186;-81
2021/04/05 01:05:33;;;;;;;31.80;18.00;;;5.00;1.00;;;;;;5008617;28;20867;-80
2021/04/05 01:07:58;;;;;;;29.30;17.90;;;5.00;1.00;;;;;;5010308;28;20461;-80
2021/04/05 01:10:25;;;;;;;34.63;17.00;;;5.00;1.00;;;;;;5009260;28;20454;-83
2021/04/05 01:12:50;;;;;;;38.37;18.50;;;4.90;1.00;;;;;;5013759;28;20281;-81
2021/04/05 01:15:17;;;;;;;34.10;19.40;;;5.00;1.00;;;;;;5009408;28;20449;-82
2021/04/05 01:17:43;;;;;;;34.83;17.50;;;5.00;1.00;;;;;;5006693;28;20443;-82
2021/04/05 01:20:12;;;;;;;31.97;18.70;;;5.00;1.00;;;;;;5008931;28;20493;-81
2021/04/05 01:22:38;;;;;;;34.73;17.40;;;5.00;1.00;;;;;;5010471;28;20981;-81
2021/04/05 01:25:06;;;;;;;31.73;17.73;;;5.00;1.00;;;;;;5023869;28;20457;-80
2021/04/05 01:27:32;;;;;;;30.70;17.80;;;5.00;1.00;;;;;;5009239;28;20449;-81
2021/04/05 01:29:58;;;;;;;28.43;16.83;;;4.90;1.00;;;;;;5012846;28;20481;-80
2021/04/05 01:32:24;;;;;;;30.97;16.83;;;5.00;1.00;;;;;;5009091;28;20446;-82
2021/04/05 01:34:50;;;;;;;32.23;17.17;;;5.00;1.00;;;;;;5010727;28;21420;-81
2021/04/05 01:37:15;;;;;;;33.70;17.50;;;5.00;1.00;;;;;;5012938;28;20226;-80
2021/04/05 01:39:41;;;;;;;38.50;17.80;;;5.00;1.00;;;;;;5009096;28;20237;-82
2021/04/05 01:42:07;;;;;;;34.20;17.30;;;5.00;1.00;;;;;;5012863;28;20260;-80
2021/04/05 01:44:38;;;;;;;33.00;16.27;;;5.10;1.00;;;;;;5010890;28;20216;-80
2021/04/05 01:47:08;;;;;;;27.23;15.57;;;5.10;1.00;;;;;;5016514;28;20187;-80
2021/04/05 01:49:33;;;;;;;28.67;16.63;;;5.10;1.00;;;;;;5015112;28;20458;-82
2021/04/05 01:51:59;;;;;;;33.03;18.80;;;5.10;1.00;;;;;;5016957;28;20480;-81
2021/04/05 01:54:25;;;;;;;35.00;17.27;;;5.10;1.00;;;;;;5013206;28;20186;-79
2021/04/05 01:56:50;;;;;;;30.33;16.73;;;5.10;1.00;;;;;;5015188;28;20192;-81
2021/04/05 01:59:17;;;;;;;35.07;18.20;;;5.00;1.00;;;;;;5008804;28;20224;-81
2021/04/05 02:01:42;;;;;;;36.07;17.63;;;5.10;1.00;;;;;;5009839;28;20566;-79
2021/04/05 02:04:09;;;;;;;33.50;19.63;;;5.00;1.00;;;;;;5012158;28;20443;-80
2021/04/05 02:06:36;;;;;;;31.27;16.17;;;5.00;1.00;;;;;;5010485;28;20539;-81
2021/04/05 02:09:07;;;;;;;33.17;18.97;;;5.00;1.00;;;;;;5010981;28;20956;-81
2021/04/05 02:11:36;;;;;;;26.73;15.80;;;5.00;1.00;;;;;;5007836;28;20462;-80
2021/04/05 02:14:04;;;;;;;37.87;17.77;;;5.00;1.00;;;;;;5007766;28;20629;-80
2021/04/05 02:16:29;;;;;;;34.40;17.20;;;5.00;1.00;;;;;;5009160;28;20462;-83
2021/04/05 02:18:57;;;;;;;27.87;18.10;;;5.00;1.00;;;;;;5007911;28;20451;-81
2021/04/05 02:21:24;;;;;;;36.87;18.93;;;5.10;1.00;;;;;;5010999;28;20223;-81
2021/04/05 02:23:51;;;;;;;32.60;17.03;;;5.10;1.00;;;;;;5009630;28;20455;-80
2021/04/05 02:26:23;;;;;;;36.30;19.87;;;5.10;1.00;;;;;;5010905;28;20545;-81
2021/04/05 02:28:54;;;;;;;35.40;17.70;;;5.20;1.00;;;;;;5008194;28;20496;-83
2021/04/05 02:31:22;;;;;;;34.33;17.93;;;5.20;1.00;;;;;;5009382;28;20497;-81
2021/04/05 02:33:53;;;;;;;32.97;17.27;;;5.20;1.00;;;;;;5019091;28;20461;-79
2021/04/05 02:36:23;;;;;;;35.63;18.60;;;5.10;1.00;;;;;;5014852;28;20464;-80
2021/04/05 02:38:51;;;;;;;36.20;18.00;;;5.10;1.00;;;;;;5012886;28;20493;-80
2021/04/05 02:41:18;;;;;;;34.47;18.67;;;5.10;1.00;;;;;;5013184;28;20492;-79
2021/04/05 02:43:46;;;;;;;34.83;18.83;;;5.10;1.00;;;;;;5008356;28;21350;-80
2021/04/05 02:46:17;;;;;;;44.93;20.27;;;5.10;1.00;;;;;;5011631;28;20457;-79
2021/04/05 02:48:46;;;;;;;33.27;17.90;;;5.20;1.00;;;;;;5008928;28;20452;-82
2021/04/05 02:51:13;;;;;;;37.40;19.73;;;5.20;1.00;;;;;;5014435;28;20527;-81
2021/04/05 02:53:45;;;;;;;37.20;20.90;;;5.20;1.00;;;;;;5014371;28;20481;-82
2021/04/05 02:56:11;;;;;;;33.90;19.30;;;5.20;1.00;;;;;;5013551;28;20575;-82
2021/04/05 02:58:42;;;;;;;35.90;17.97;;;5.20;1.00;;;;;;5020765;28;20459;-83
2021/04/05 03:01:10;;;;;;;38.83;18.47;;;5.10;1.00;;;;;;5020737;28;20493;-79
2021/04/05 03:03:37;;;;;;;37.67;19.50;;;5.10;1.00;;;;;;5017062;28;20449;-81
2021/04/05 03:06:06;;;;;;;37.23;21.00;;;5.10;1.00;;;;;;5015588;28;20451;-81
2021/04/05 03:08:32;;;;;;;37.50;20.70;;;5.10;1.00;;;;;;5012498;28;20446;-83
2021/04/05 03:10:58;;;;;;;32.53;18.50;;;5.10;1.00;;;;;;5007798;28;20499;-81
2021/04/05 03:13:25;;;;;;;34.93;19.80;;;5.10;1.00;;;;;;5008927;28;20779;-81
2021/04/05 03:15:52;;;;;;;42.63;21.47;;;5.00;1.00;;;;;;5011675;28;20542;-80
2021/04/05 03:18:23;;;;;;;44.27;22.83;;;5.10;1.00;;;;;;5008595;28;20437;-81
2021/04/05 03:20:49;;;;;;;37.80;19.50;;;5.10;1.00;;;;;;5009861;28;20534;-79
2021/04/05 03:23:16;;;;;;;43.53;21.27;;;5.10;1.00;;;;;;5010487;28;20474;-80
2021/04/05 03:25:42;;;;;;;44.50;22.27;;;5.20;1.00;;;;;;5009375;28;20453;-80
2021/04/05 03:28:09;;;;;;;34.43;20.20;;;5.30;1.00;;;;;;5006435;28;24825;-81
2021/04/05 03:31:05;;;;;;;38.30;20.30;;;5.30;1.00;;;;;;5008339;28;20452;-80
2021/04/05 03:33:55;;;;;;;46.07;19.57;;;5.40;1.00;;;;;;5007418;28;20454;-81
2021/04/05 03:36:48;;;;;;;37.40;18.87;;;5.30;1.00;;;;;;5006547;28;20447;-81
2021/04/05 03:39:15;;;;;;;33.80;20.30;;;5.40;1.00;;;;;;5006017;28;21127;-81
2021/04/05 03:42:02;;;;;;;43.70;19.63;;;5.50;1.00;;;;;;5008392;28;20501;-81
2021/04/05 03:44:36;;;;;;;33.77;19.57;;;5.40;1.00;;;;;;5005616;28;20531;-82
2021/04/05 03:47:11;;;;;;;35.17;18.60;;;5.40;1.00;;;;;;5010668;28;20488;-82
2021/04/05 03:49:43;;;;;;;32.73;18.27;;;5.50;1.00;;;;;;5009105;28;20449;-84
2021/04/05 03:52:26;;;;;;;39.70;19.70;;;5.50;1.00;;;;;;5008592;28;20457;-81
2021/04/05 03:54:57;;;;;;;34.77;19.63;;;5.50;1.00;;;;;;5007633;28;20458;-80
2021/04/05 03:57:28;;;;;;;33.07;18.47;;;5.50;1.00;;;;;;5006195;28;20438;-84
2021/04/05 03:59:57;;;;;;;34.13;18.90;;;5.50;1.00;;;;;;5008325;28;20504;-82
2021/04/05 04:02:31;;;;;;;34.53;18.60;;;5.60;1.00;;;;;;5011909;28;20826;-81
2021/04/05 04:05:07;;;;;;;36.93;18.17;;;5.60;1.00;;;;;;5009201;28;20445;-80
2021/04/05 04:10:05;;;;;;;33.73;19.10;;;5.60;1.00;;;;;;5015128;28;20482;-82
2021/04/05 04:12:33;;;;;;;32.40;18.23;;;5.60;1.00;;;;;;5009665;28;20472;-80
2021/04/05 04:15:00;;;;;;;43.37;19.83;;;5.60;1.00;;;;;;5012100;28;20510;-81
2021/04/05 04:17:26;;;;;;;38.87;19.33;;;5.60;1.00;;;;;;5011004;28;20450;-80
2021/04/05 04:19:55;;;;;;;40.60;18.27;;;5.60;1.00;;;;;;5007173;28;20614;-83
2021/04/05 04:22:22;;;;;;;32.50;18.07;;;5.60;1.00;;;;;;5006630;28;20805;-81
2021/04/05 04:24:48;;;;;;;39.27;18.20;;;5.60;1.00;;;;;;5012600;28;20456;-81
2021/04/05 04:27:17;;;;;;;32.13;18.90;;;5.60;1.00;;;;;;5008878;28;20475;-83
2021/04/05 04:29:52;;;;;;;40.47;19.60;;;5.60;1.00;;;;;;5010565;28;21175;-82
2021/04/05 04:32:18;;;;;;;31.90;18.60;;;5.60;1.00;;;;;;5007007;28;20445;-83
2021/04/05 04:34:43;;;;;;;37.10;18.90;;;5.70;1.00;;;;;;5007343;28;20504;-81
2021/04/05 04:37:10;;;;;;;36.63;17.27;;;5.70;1.00;;;;;;5010703;28;20198;-83
2021/04/05 04:39:36;;;;;;;37.53;19.80;;;5.70;1.00;;;;;;5010507;28;20322;-82
2021/04/05 04:42:02;;;;;;;34.97;19.03;;;5.70;1.00;;;;;;5005946;28;20573;-83
2021/04/05 04:44:28;;;;;;;44.20;17.57;;;5.70;1.00;;;;;;5008448;28;20618;-81
2021/04/05 04:46:54;;;;;;;32.87;17.30;;;5.70;1.00;;;;;;5012197;28;20449;-82
2021/04/05 04:49:19;;;;;;;34.93;17.20;;;5.70;1.00;;;;;;5012445;28;20683;-82
2021/04/05 04:51:45;;;;;;;34.07;16.07;;;5.70;1.00;;;;;;5012445;28;20195;-82
2021/04/05 04:54:11;;;;;;;33.60;17.03;;;5.70;1.00;;;;;;5016825;28;20278;-81
2021/04/05 04:56:38;;;;;;;35.23;18.20;;;5.70;1.00;;;;;;5013503;28;21262;-81
2021/04/05 04:59:06;;;;;;;33.20;18.90;;;5.70;1.00;;;;;;5013507;28;20473;-83
2021/04/05 05:01:40;;;;;;;29.23;18.73;;;5.70;1.00;;;;;;5011785;28;20574;-81
2021/04/05 05:04:15;;;;;;;36.50;19.83;;;5.70;1.00;;;;;;5008337;28;20902;-81
2021/04/05 05:06:42;;;;;;;39.60;21.43;;;5.70;1.00;;;;;;5012729;28;20450;-80
2021/04/05 05:09:07;;;;;;;36.43;20.30;;;5.70;1.00;;;;;;5008359;28;21619;-81
2021/04/05 05:11:34;;;;;;;43.10;18.20;;;5.80;1.00;;;;;;5008199;28;20465;-79
2021/04/05 05:13:59;;;;;;;45.40;20.87;;;5.80;1.00;;;;;;5004016;28;20206;-78
2021/04/05 05:16:26;;;;;;;32.33;19.23;;;5.80;1.00;;;;;;5010573;28;20986;-78
2021/04/05 05:18:54;;;;;;;40.70;18.10;;;5.80;1.00;;;;;;5006410;28;20733;-78
2021/04/05 05:21:29;;;;;;;30.60;19.20;;;5.80;1.00;;;;;;5007204;28;21360;-78
2021/04/05 05:24:02;;;;;;;29.50;17.63;;;5.80;1.00;;;;;;5008002;28;21245;-78
2021/04/05 05:26:28;;;;;;;42.60;20.73;;;5.80;1.00;;;;;;5010736;28;22208;-79
2021/04/05 05:28:56;;;;;;;40.47;20.40;;;5.80;1.00;;;;;;5010475;28;20466;-80
2021/04/05 05:31:22;;;;;;;35.33;18.77;;;5.80;1.00;;;;;;5007026;28;20537;-78
2021/04/05 05:33:48;;;;;;;37.80;20.30;;;5.80;1.00;;;;;;5009720;28;20442;-79
2021/04/05 05:36:17;;;;;;;39.53;21.23;;;5.80;1.00;;;;;;5011728;28;20449;-80
2021/04/05 05:38:45;;;;;;;38.10;18.90;;;5.80;1.00;;;;;;5016116;28;21261;-79
2021/04/05 05:41:23;;;;;;;36.80;19.47;;;5.80;1.00;;;;;;5012774;28;20482;-78
2021/04/05 05:44:04;;;;;;;41.70;20.67;;;5.80;1.00;;;;;;5008158;28;20491;-79
2021/04/05 05:46:42;;;;;;;41.10;19.73;;;5.80;1.00;;;;;;5007394;28;20450;-79
2021/04/05 05:49:20;;;;;;;38.27;19.90;;;5.80;1.00;;;;;;5011405;28;21369;-79
2021/04/05 05:51:55;;;;;;;38.07;22.00;;;5.80;1.00;;;;;;5023677;28;20485;-78
2021/04/05 05:54:39;;;;;;;45.37;20.90;;;5.80;1.00;;;;;;5010699;28;20473;-78
2021/04/05 05:57:18;;;;;;;37.20;20.50;;;5.80;1.00;;;;;;5015900;28;21358;-78
2021/04/05 05:59:53;;;;;;;40.93;21.83;;;5.80;1.00;;;;;;5014431;28;20567;-82
2021/04/05 06:02:57;;;;;;;39.07;24.50;;;5.80;1.00;;;;;;5015209;28;20489;-81
2021/04/05 06:05:48;;;;;;;36.33;21.10;;;5.80;1.00;;;;;;5016937;28;20480;-80
2021/04/05 06:08:44;;;;;;;39.13;21.17;;;5.80;1.00;;;;;;5025330;28;20460;-81
2021/04/05 06:11:44;;;;;;;37.67;21.30;;;5.80;1.00;;;;;;5019748;28;20450;-81
2021/04/05 06:14:26;;;;;;;45.17;23.50;;;5.80;1.00;;;;;;5017010;28;20460;-79
2021/04/05 06:17:09;;;;;;;35.10;19.90;;;5.90;1.00;;;;;;5019063;28;20457;-78
2021/04/05 06:19:46;;;;;;;36.77;21.63;;;5.90;1.00;;;;;;5022791;28;20478;-79
2021/04/05 06:22:40;;;;;;;37.23;20.47;;;5.90;1.00;;;;;;5014161;28;20468;-79
2021/04/05 06:25:27;;;;;;;40.60;22.53;;;5.90;1.00;;;;;;5014132;28;21261;-81
2021/04/05 06:28:16;;;;;;;38.00;21.60;;;5.90;1.00;;;;;;5017484;28;20472;-80
2021/04/05 06:31:00;;;;;;;37.00;21.30;;;5.90;1.00;;;;;;5014434;28;20503;-80
2021/04/05 06:33:38;;;;;;;38.43;22.00;;;5.90;1.00;;;;;;5010293;28;20460;-78
2021/04/05 06:36:15;;;;;;;43.50;23.80;;;5.90;1.00;;;;;;5015428;28;20449;-81
2021/04/05 06:38:44;;;;;;;36.03;22.23;;;5.90;1.00;;;;;;5013552;28;20805;-80
2021/04/05 06:41:35;;;;;;;38.47;21.60;;;5.90;1.00;;;;;;5019494;28;20844;-80
2021/04/05 06:44:24;;;;;;;45.40;23.40;;;5.80;1.00;;;;;;5014358;28;20902;-80
2021/04/05 06:47:11;;;;;;;39.53;23.13;;;5.90;1.00;;;;;;5013274;28;20467;-82
2021/04/05 06:49:40;;;;;;;45.17;23.63;;;5.80;1.00;;;;;;5019110;28;20980;-78
2021/04/05 06:52:09;;;;;;;38.50;23.03;;;5.80;4.30;;;;;;5017992;28;20773;-79
2021/04/05 06:54:59;;;;;;;45.40;23.07;;;5.80;32.20;;;;;;5013561;28;20544;-78
2021/04/05 06:58:02;;;;;;;36.67;25.17;;;5.80;58.50;;;;;;5015867;28;20454;-78
2021/04/05 07:00:35;;;;;;;44.80;24.07;;;5.80;99.90;;;;;;5017694;28;20634;-79
2021/04/05 07:03:38;;;;;;;44.50;23.93;;;5.80;99.90;;;;;;5011296;28;20455;-79
2021/04/05 07:06:14;;;;;;;46.80;25.50;;;5.70;99.90;;;;;;5021895;28;20495;-78
2021/04/05 07:08:58;;;;;;;37.87;24.83;;;5.70;99.90;;;;;;5016754;28;20904;-78
2021/04/05 07:11:33;;;;;;;36.20;23.10;;;5.70;99.90;;;;;;5013660;28;20447;-81
2021/04/05 07:14:27;;;;;;;46.40;24.23;;;5.70;99.90;;;;;;5020557;28;20960;-78
2021/04/05 07:17:30;;;;;;;39.03;22.20;;;5.70;99.90;;;;;;5018417;28;20563;-79
2021/04/05 07:20:13;;;;;;;42.53;25.80;;;5.60;99.90;;;;;;5015993;28;20485;-77
2021/04/05 07:23:15;;;;;;;49.90;25.67;;;5.60;99.90;;;;;;5016703;28;20818;-77
2021/04/05 07:25:53;;;;;;;45.13;23.90;;;5.70;99.90;;;;;;5017201;28;20536;-78
2021/04/05 07:28:33;;;;;;;37.50;21.90;;;5.70;1.00;;;;;;5015702;28;20938;-79
2021/04/05 07:31:21;;;;;;;45.70;23.30;;;5.70;99.90;;;;;;5011508;28;20465;-79
2021/04/05 07:33:50;;;;;;;38.07;23.07;;;5.60;10.40;;;;;;5015306;28;20995;-79
2021/04/05 07:36:40;;;;;;;44.77;23.30;;;5.70;1.00;;;;;;5014181;28;20446;-79
2021/04/05 07:39:31;;;;;;;45.03;24.73;;;5.70;1.00;;;;;;5017965;28;20455;-79
2021/04/05 07:42:29;;;;;;;43.90;25.50;;;5.70;99.90;;;;;;5014430;28;21126;-79
2021/04/05 07:45:05;;;;;;;38.03;24.03;;;5.60;1.00;;;;;;5011748;28;20872;-79
2021/04/05 07:47:49;;;;;;;47.80;25.93;;;5.60;1.00;;;;;;5016879;28;20445;-78
2021/04/05 07:50:26;;;;;;;48.23;24.90;;;5.60;99.90;;;;;;5017253;28;20452;-79
2021/04/05 07:53:01;;;;;;;45.63;26.90;;;5.60;99.90;;;;;;5018826;28;20448;-78
2021/04/05 07:55:27;;;;;;;42.27;23.00;;;5.50;99.90;;;;;;5016203;28;21046;-79
2021/04/05 07:58:24;;;;;;;28.17;18.00;;;5.40;99.90;;;;;;5016549;28;20552;-78
2021/04/05 08:01:12;;;;;;;24.03;15.10;;;5.30;99.90;;;;;;5016092;28;20485;-79
2021/04/05 08:04:10;;;;;;;20.00;11.37;;;5.20;99.90;;;;;;5010449;28;20433;-79
2021/04/05 08:06:57;;;;;;;24.07;12.00;;;5.10;99.90;;;;;;5016514;28;20833;-79
2021/04/05 08:09:50;;;;;;;16.37;10.10;;;5.20;99.90;;;;;;5018856;28;20457;-79
2021/04/05 08:12:28;;;;;;;9.40;6.50;;;5.20;99.90;;;;;;5017330;28;20576;-84
2021/04/05 08:15:03;;;;;;;5.50;4.43;;;5.20;99.90;;;;;;5008296;28;20496;-79
2021/04/05 08:17:50;;;;;;;5.93;4.13;;;5.10;1.00;;;;;;5005822;28;20487;-78
2021/04/05 08:20:38;;;;;;;6.70;3.80;;;5.00;99.90;;;;;;5014205;28;20470;-77
2021/04/05 08:23:14;;;;;;;3.53;3.00;;;5.10;99.90;;;;;;5004095;28;20600;-77
2021/04/05 08:25:57;;;;;;;5.03;3.20;;;5.10;1.00;;;;;;5004471;28;20509;-77
2021/04/05 08:28:41;;;;;;;2.80;2.47;;;4.90;1.00;;;;;;4998850;28;20934;-77
2021/04/05 08:31:31;;;;;;;3.90;2.70;;;4.80;58.90;;;;;;5001266;28;20466;-77
2021/04/05 08:34:31;;;;;;;3.20;2.60;;;4.80;1.00;;;;;;4998200;28;20483;-77
2021/04/05 08:37:19;;;;;;;5.77;4.07;;;4.90;99.90;;;;;;5000666;28;20472;-78
2021/04/05 08:40:01;;;;;;;4.77;3.33;;;5.10;1.00;;;;;;5004491;28;20858;-77
2021/04/05 08:42:39;;;;;;;5.60;4.07;;;5.00;99.90;;;;;;5001241;28;20445;-77
2021/04/05 08:45:12;;;;;;;5.30;4.30;;;4.80;99.90;;;;;;5000760;28;20492;-77
2021/04/05 08:47:41;;;;;;;8.33;5.07;;;4.80;99.90;;;;;;4995033;28;20451;-77
2021/04/05 08:50:12;;;;;;;5.57;5.03;;;4.70;99.90;;;;;;5007444;28;20495;-77
2021/04/05 08:52:44;;;;;;;7.67;5.10;;;4.60;1.00;;;;;;5007399;28;20489;-77
2021/04/05 08:55:22;;;;;;;6.90;5.17;;;4.70;1.00;;;;;;5007999;28;20785;-77
2021/04/05 08:58:07;;;;;;;5.07;3.90;;;4.70;99.90;;;;;;5006856;28;20451;-77
2021/04/05 09:00:43;;;;;;;10.80;3.37;;;4.60;99.90;;;;;;5005654;28;20522;-80
2021/04/05 09:03:11;;;;;;;3.77;3.00;;;4.60;1.00;;;;;;5001346;28;20840;-79
2021/04/05 09:05:44;;;;;;;6.43;2.77;;;4.70;1.00;;;;;;5006163;28;20441;-79
2021/04/05 09:08:14;;;;;;;7.00;2.77;;;4.70;99.90;;;;;;5000930;28;21317;-79
2021/04/05 09:11:01;;;;;;;3.63;2.80;;;4.60;1.00;;;;;;5005816;28;20909;-79
2021/04/05 09:13:28;;;;;;;3.07;2.77;;;4.50;81.50;;;;;;5010224;28;20460;-79
2021/04/05 09:16:21;;;;;;;4.70;3.70;;;4.30;99.90;;;;;;5006277;28;20499;-80
2021/04/05 09:19:21;;;;;;;3.53;3.23;;;4.10;99.90;;;;;;5007700;28;20700;-79
2021/04/05 09:22:17;;;;;;;3.77;3.27;;;4.00;99.90;;;;;;5001701;28;20480;-78
2021/04/05 09:25:09;;;;;;;4.00;2.70;;;3.80;99.90;;;;;;5008232;28;20451;-79
2021/04/05 09:27:56;;;;;;;5.53;3.27;;;3.70;99.90;;;;;;5002624;28;20453;-79
2021/04/05 09:30:44;;;;;;;3.80;2.40;;;3.60;99.90;;;;;;5005272;28;20705;-78
2021/04/05 09:33:34;;;;;;;4.47;2.43;;;3.60;61.00;;;;;;5009093;28;21131;-79
2021/04/05 09:36:39;;;;;;;5.80;3.10;;;3.40;80.50;;;;;;5008899;28;20792;-79
2021/04/05 09:39:39;;;;;;;4.50;2.30;;;3.40;72.70;;;;;;5011081;28;21029;-79
2021/04/05 09:42:40;;;;;;;19.47;3.70;;;3.40;19.30;;;;;;5007338;28;20830;-79
2021/04/05 09:45:14;;;;;;;8.80;2.53;;;3.40;30.50;;;;;;5013703;28;20495;-79
2021/04/05 09:47:55;;;;;;;7.57;1.77;;;3.50;81.90;;;;;;5001105;28;20892;-79
2021/04/05 09:50:31;;;;;;;11.93;2.60;;;3.50;53.60;;;;;;5006518;28;20456;-79
2021/04/05 09:53:13;;;;;;;12.43;1.93;;;3.50;27.50;;;;;;5000602;28;20454;-79
2021/04/05 09:55:45;;;;;;;13.73;2.80;;;3.50;21.40;;;;;;5003348;28;20508;-79
2021/04/05 09:58:24;;;;;;;7.03;3.13;;;3.50;20.20;;;;;;4999172;28;20596;-79
2021/04/05 10:01:10;;;;;;;14.90;3.30;;;3.20;31.10;;;;;;5008107;28;20502;-78
2021/04/05 10:03:41;;;;;;;13.17;3.30;;;3.40;99.90;;;;;;5008842;28;20484;-78
2021/04/05 10:06:10;;;;;;;8.30;2.83;;;3.40;99.90;;;;;;5008027;28;20444;-78
2021/04/05 10:08:38;;;;;;;10.53;3.20;;;3.30;99.90;;;;;;5010817;28;20537;-77
2021/04/05 10:11:07;;;;;;;11.70;3.77;;;3.10;56.10;;;;;;5012482;28;20444;-78
2021/04/05 10:13:35;;;;;;;13.03;3.83;;;3.30;99.90;;;;;;5010246;28;20448;-78
2021/04/05 10:16:04;;;;;;;13.33;3.00;;;3.30;99.90;;;;;;5006718;28;20485;-78
2021/04/05 10:18:31;;;;;;;11.00;2.93;;;3.40;73.60;;;;;;5007603;28;21102;-77
2021/04/05 10:20:57;;;;;;;10.03;2.93;;;3.50;97.50;;;;;;5008601;28;20607;-77
2021/04/05 10:23:26;;;;;;;7.77;2.80;;;3.50;99.90;;;;;;5006140;28;20460;-78
2021/04/05 10:26:00;;;;;;;9.10;3.47;;;3.50;91.50;;;;;;5009088;28;20494;-77
2021/04/05 10:28:30;;;;;;;7.90;3.50;;;3.50;68.80;;;;;;5009756;28;21618;-77
2021/04/05 10:31:02;;;;;;;7.70;3.33;;;3.50;75.80;;;;;;5006518;28;20473;-79
2021/04/05 10:33:44;;;;;;;12.03;2.87;;;3.70;99.90;;;;;;5008366;28;20452;-79
2021/04/05 10:36:22;;;;;;;14.23;3.50;;;3.40;63.60;;;;;;5004804;28;20453;-79
2021/04/05 10:38:50;;;;;;;8.63;2.40;;;3.50;99.90;;;;;;4995735;28;20551;-79
2021/04/05 10:41:19;;;;;;;7.30;3.17;;;3.60;92.40;;;;;;5005134;28;20516;-79
2021/04/05 10:43:52;;;;;;;7.27;2.60;;;3.60;77.60;;;;;;5012791;28;20476;-77
2021/04/05 10:46:21;;;;;;;3.30;1.60;;;3.50;2.80;;;;;;5024984;28;20479;-77
2021/04/05 10:48:53;;;;;;;7.33;1.40;;;3.20;10.20;;;;;;5026428;28;20462;-78
2021/04/05 10:51:27;;;;;;;15.40;1.90;;;3.20;1.00;;;;;;5024056;28;20826;-78
2021/04/05 10:54:21;;;;;;;10.07;1.57;;;3.30;1.00;;;;;;5005284;28;20471;-78
2021/04/05 10:56:59;;;;;;;3.10;1.63;;;2.90;1.00;;;;;;5011675;28;20449;-80
2021/04/05 10:59:49;;;;;;;1.83;1.13;;;2.40;1.00;;;;;;5009595;28;20447;-78
2021/04/05 11:02:26;;;;;;;1.30;1.00;;;1.90;1.00;;;;;;5006474;28;20427;-76
2021/04/05 11:05:15;;;;;;;3.43;1.10;;;1.70;1.00;;;;;;5008113;28;20451;-78
2021/04/05 11:07:44;;;;;;;2.23;1.17;;;1.90;1.00;;;;;;5011160;28;20453;-79
2021/04/05 11:10:19;;;;;;;2.97;1.63;;;2.10;1.00;;;;;;5016053;28;20515;-79
2021/04/05 11:12:52;;;;;;;4.20;2.47;;;2.20;1.00;;;;;;5008767;28;20439;-79
2021/04/05 11:15:20;;;;;;;5.30;2.70;;;2.40;9.20;;;;;;5016687;28;20476;-78
2021/04/05 11:17:48;;;;;;;4.27;2.50;;;2.50;1.00;;;;;;5027363;28;20456;-79
2021/04/05 11:20:18;;;;;;;4.00;2.33;;;2.70;1.00;;;;;;5010677;28;20465;-79
2021/04/05 11:22:45;;;;;;;4.70;1.73;;;2.70;1.00;;;;;;5007703;28;20549;-79
2021/04/05 11:25:13;;;;;;;3.83;2.10;;;2.90;1.00;;;;;;5011589;28;20444;-79
2021/04/05 11:28:07;;;;;;;3.20;1.73;;;2.80;1.00;;;;;;5013988;28;20453;-79
2021/04/05 11:30:35;;;;;;;4.00;1.37;;;2.90;1.00;;;;;;5007298;28;20479;-80
2021/04/05 11:33:02;;;;;;;2.17;1.60;;;2.80;1.00;;;;;;5009252;28;20459;-79
2021/04/05 11:35:33;;;;;;;3.73;1.53;;;3.00;1.00;;;;;;5012365;28;20449;-78
2021/04/05 11:38:01;;;;;;;1.60;1.30;;;2.60;1.00;;;;;;5014569;28;21019;-77
2021/04/05 11:40:30;;;;;;;5.23;1.53;;;2.40;1.00;;;;;;5010402;28;20480;-78
2021/04/05 11:42:59;;;;;;;5.07;1.37;;;2.60;1.00;;;;;;5010400;28;20466;-79
2021/04/05 11:45:39;;;;;;;1.90;1.60;;;3.00;1.00;;;;;;5013135;28;20479;-78
2021/04/05 11:48:13;;;;;;;6.63;1.93;;;3.20;1.00;;;;;;5008315;28;20451;-78
2021/04/05 11:50:43;;;;;;;3.00;1.30;;;3.30;1.00;;;;;;5010633;28;20549;-78
2021/04/05 11:53:20;;;;;;;8.20;1.70;;;3.30;1.00;;;;;;5008683;28;20496;-78
2021/04/05 11:55:47;;;;;;;3.60;2.20;;;3.40;1.00;;;;;;5013233;28;20453;-78
2021/04/05 11:58:19;;;;;;;2.90;2.53;;;3.60;1.00;;;;;;5007639;28;20451;-82
2021/04/05 12:00:52;;;;;;;7.20;2.40;;;3.10;1.00;;;;;;5013954;28;20572;-78
2021/04/05 12:03:35;;;;;;;3.00;1.70;;;2.70;1.00;;;;;;5018432;28;20433;-77
2021/04/05 12:06:10;;;;;;;4.90;1.60;;;2.30;1.00;;;;;;5011839;28;20457;-79
2021/04/05 12:08:54;;;;;;;7.10;1.70;;;1.70;1.00;;;;;;5011581;28;20495;-78
2021/04/05 12:11:23;;;;;;;5.30;1.97;;;1.70;1.00;;;;;;5015804;28;20451;-77
2021/04/05 12:14:10;;;;;;;5.43;1.83;;;1.30;1.00;;;;;;5010210;28;20479;-76
2021/04/05 12:16:38;;;;;;;9.17;1.77;;;1.00;1.00;;;;;;5023846;28;20473;-77
2021/04/05 12:19:05;;;;;;;3.87;1.40;;;1.10;1.00;;;;;;5012336;28;20457;-77
2021/04/05 12:21:33;;;;;;;5.90;2.00;;;1.40;1.00;;;;;;5013677;28;20522;-77
2021/04/05 12:24:04;;;;;;;2.10;1.40;;;1.70;1.00;;;;;;5011886;28;20540;-77
2021/04/05 12:26:31;;;;;;;4.60;1.60;;;1.80;1.00;;;;;;5019708;28;20819;-76
2021/04/05 12:29:06;;;;;;;10.40;1.87;;;2.10;1.00;;;;;;5016798;28;20451;-78
2021/04/05 12:31:33;;;;;;;6.43;4.03;;;2.40;1.00;;;;;;5017070;28;20476;-77
2021/04/05 12:34:09;;;;;;;7.80;2.70;;;2.70;1.00;;;;;;5019594;28;20447;-78
2021/04/05 12:36:36;;;;;;;9.37;3.20;;;3.10;1.00;;;;;;5015531;28;20461;-78
2021/04/05 12:39:05;;;;;;;8.67;3.40;;;3.10;1.00;;;;;;5019720;28;20447;-78
2021/04/05 12:41:35;;;;;;;6.50;1.87;;;3.20;1.00;;;;;;5018347;28;20487;-78
2021/04/05 12:44:05;;;;;;;5.47;2.30;;;3.30;1.00;;;;;;5013291;28;20460;-77
2021/04/05 12:46:31;;;;;;;7.17;2.70;;;3.30;1.00;;;;;;5022259;28;20614;-78
2021/04/05 12:49:00;;;;;;;6.67;3.57;;;3.10;1.00;;;;;;4995446;28;20551;-79
2021/04/05 12:51:27;;;;;;;10.60;3.63;;;2.90;1.00;;;;;;5018657;28;20494;-78
2021/04/05 12:54:04;;;;;;;22.43;10.47;;;2.40;1.00;;;;;;4999244;28;20893;-76
2021/04/05 12:56:31;;;;;;;4.60;2.70;;;2.20;1.00;;;;;;5009554;28;21271;-77
2021/04/05 12:58:58;;;;;;;4.93;3.10;;;2.10;1.00;;;;;;5014957;28;20509;-76
2021/04/05 13:01:36;;;;;;;6.63;2.73;;;2.20;1.00;;;;;;5012556;28;20577;-76
2021/04/05 13:04:04;;;;;;;8.53;2.10;;;2.60;1.00;;;;;;5002989;28;20439;-78
2021/04/05 13:07:01;;;;;;;4.43;2.00;;;2.80;1.00;;;;;;5009355;28;20482;-80
2021/04/05 13:09:37;;;;;;;4.20;1.90;;;3.20;1.00;;;;;;5014432;28;20451;-81
2021/04/05 13:12:34;;;;;;;1.93;1.10;;;3.60;1.00;;;;;;5020638;28;20804;-80
2021/04/05 13:15:10;;;;;;;1.50;1.00;;;3.60;1.00;;;;;;5011468;28;20470;-80
2021/04/05 13:17:39;;;;;;;3.50;1.17;;;3.70;1.00;;;;;;5014348;28;20444;-80
2021/04/05 13:20:15;;;;;;;4.80;1.57;;;4.10;1.00;;;;;;5015668;28;20894;-80
2021/04/05 13:22:43;;;;;;;5.60;1.23;;;4.30;1.00;;;;;;5018885;28;20928;-81
2021/04/05 13:25:23;;;;;;;5.90;1.20;;;4.50;1.00;;;;;;5012950;28;20973;-80
2021/04/05 13:27:50;;;;;;;3.00;1.20;;;4.40;1.00;;;;;;5019518;28;20448;-80
2021/04/05 13:30:18;;;;;;;4.20;1.20;;;4.20;1.00;;;;;;5016212;28;20447;-81
2021/04/05 13:32:44;;;;;;;3.47;1.23;;;4.00;1.00;;;;;;5013772;28;20453;-78